createdAt,value
2023-08-12T00:01:12.872Z,56.03
2023-08-12T00:06:14.407Z,56.26
2023-08-12T00:11:15.928Z,56.40
2023-08-12T00:16:17.470Z,57.63
2023-08-12T00:21:18.989Z,57.76
2023-08-12T00:26:20.497Z,58.14
2023-08-12T00:31:22.064Z,58.42
2023-08-12T00:36:23.667Z,57.61
2023-08-12T00:41:25.186Z,58.18
2023-08-12T00:46:26.753Z,57.40
2023-08-12T00:51:28.320Z,57.46
2023-08-12T00:56:29.824Z,57.10
2023-08-12T01:01:31.759Z,57.32
2023-08-12T01:06:33.284Z,57.70
2023-08-12T01:11:54.427Z,56.70
2023-08-12T01:16:59.773Z,56.43
2023-08-12T01:22:02.797Z,56.22
2023-08-12T01:27:04.819Z,57.47
2023-08-12T01:32:28.852Z,57.38
2023-08-12T01:37:30.734Z,56.55
2023-08-12T01:42:33.475Z,56.53
2023-08-12T01:47:34.998Z,56.84
2023-08-12T01:52:36.617Z,56.68
2023-08-12T01:57:38.152Z,56.44
2023-08-12T02:02:39.681Z,56.46
2023-08-12T02:07:41.236Z,56.85
2023-08-12T02:12:42.735Z,56.73
2023-08-12T02:17:44.403Z,56.71
2023-08-12T02:22:45.939Z,57.06
2023-08-12T02:27:47.481Z,56.78
2023-08-12T02:32:49.395Z,56.55
2023-08-12T02:37:50.922Z,56.93
2023-08-12T02:42:52.436Z,57.44
2023-08-12T02:47:53.975Z,56.96
2023-08-12T02:52:55.563Z,56.85
2023-08-12T02:57:57.117Z,56.99
2023-08-12T03:02:58.777Z,57.38
2023-08-12T03:08:02.515Z,57.28
2023-08-12T03:13:04.113Z,57.54
2023-08-12T03:18:05.699Z,57.66
2023-08-12T03:23:07.254Z,57.51
2023-08-12T03:28:08.939Z,57.64
2023-08-12T03:33:10.488Z,57.24
2023-08-12T03:38:12.055Z,57.72
2023-08-12T03:43:14.012Z,57.76
2023-08-12T03:48:15.510Z,57.82
2023-08-12T03:53:18.355Z,57.78
2023-08-12T03:58:19.939Z,58.19
2023-08-12T04:03:21.505Z,58.58
2023-08-12T04:08:23.478Z,58.27
2023-08-12T04:13:24.838Z,58.81
2023-08-12T04:18:26.273Z,59.22
2023-08-12T04:23:27.918Z,59.38
2023-08-12T04:28:29.542Z,59.53
2023-08-12T04:33:31.067Z,59.34
2023-08-12T04:38:32.611Z,59.89
2023-08-12T04:43:34.110Z,59.48
2023-08-12T04:48:35.601Z,59.64
2023-08-12T04:53:37.095Z,59.49
2023-08-12T04:58:38.635Z,59.58
2023-08-12T05:03:40.137Z,59.47
2023-08-12T05:08:41.621Z,59.45
2023-08-12T05:13:44.984Z,59.43
2023-08-12T05:18:48.393Z,59.55
2023-08-12T05:23:49.917Z,59.82
2023-08-12T05:28:51.477Z,60.01
2023-08-12T05:33:53.217Z,59.70
2023-08-12T05:38:54.699Z,60.02
2023-08-12T05:43:56.051Z,60.09
2023-08-12T05:48:57.453Z,59.65
2023-08-12T05:53:58.816Z,59.61
2023-08-12T05:59:00.211Z,59.88
2023-08-12T06:04:01.630Z,60.16
2023-08-12T06:09:03.353Z,59.55
2023-08-12T06:14:05.013Z,59.15
2023-08-12T06:19:06.565Z,59.41
2023-08-12T06:24:08.101Z,59.42
2023-08-12T06:29:09.630Z,58.97
2023-08-12T06:34:11.267Z,59.31
2023-08-12T06:39:12.773Z,59.63
2023-08-12T06:44:14.263Z,59.35
2023-08-12T06:49:16.246Z,58.88
2023-08-12T06:54:17.798Z,58.86
2023-08-12T06:59:19.504Z,58.95
2023-08-12T07:04:20.882Z,58.67
2023-08-12T07:09:22.378Z,57.97
2023-08-12T07:14:23.946Z,57.31
2023-08-12T07:19:25.440Z,57.43
2023-08-12T07:24:26.978Z,57.33
2023-08-12T07:29:28.476Z,57.52
2023-08-12T07:34:31.688Z,57.11
2023-08-12T07:39:33.484Z,56.35
2023-08-12T07:44:34.997Z,56.21
2023-08-12T07:49:36.546Z,55.86
2023-08-12T07:54:37.920Z,55.31
2023-08-12T07:59:39.430Z,55.56
2023-08-12T08:04:41.041Z,55.18
2023-08-12T08:09:42.572Z,56.00
2023-08-12T08:14:44.061Z,55.87
2023-08-12T08:19:45.552Z,55.58
2023-08-12T08:24:47.052Z,54.54
2023-08-12T08:29:48.884Z,54.96
2023-08-12T08:34:50.395Z,54.31
2023-08-12T08:39:51.924Z,55.07
2023-08-12T08:44:54.174Z,54.62
2023-08-12T08:49:56.104Z,55.10
2023-08-12T09:00:04.433Z,55.52
2023-08-12T09:05:06.422Z,55.39
2023-08-12T09:10:08.373Z,55.27
2023-08-12T09:15:10.616Z,55.73
2023-08-12T09:20:15.288Z,55.58
2023-08-12T09:25:17.042Z,55.42
2023-08-12T09:30:18.958Z,56.51
2023-08-12T09:35:20.477Z,56.08
2023-08-12T09:40:21.977Z,56.56
2023-08-12T09:45:26.552Z,56.32
2023-08-12T09:50:28.090Z,56.07
2023-08-12T09:55:29.877Z,56.62
2023-08-12T10:00:31.357Z,56.64
2023-08-12T10:05:33.618Z,56.58
2023-08-12T10:10:36.116Z,56.71
2023-08-12T10:15:37.833Z,57.34
2023-08-12T10:20:39.614Z,57.74
2023-08-12T10:25:41.114Z,57.46
2023-08-12T10:30:45.149Z,57.83
2023-08-12T10:35:47.902Z,58.04
2023-08-12T10:40:49.437Z,58.03
2023-08-12T10:45:53.743Z,59.15
2023-08-12T10:50:57.123Z,59.04
2023-08-12T10:55:59.645Z,59.81
2023-08-12T11:01:01.292Z,60.29
2023-08-12T11:06:04.138Z,60.80
2023-08-12T11:11:11.514Z,60.35
2023-08-12T11:16:13.129Z,61.23
2023-08-12T11:21:14.665Z,59.81
2023-08-12T11:26:16.224Z,60.25
2023-08-12T11:31:18.111Z,59.63
2023-08-12T11:36:19.641Z,59.26
2023-08-12T11:41:23.908Z,59.33
2023-08-12T11:46:26.228Z,59.58
2023-08-12T11:51:27.721Z,59.23
2023-08-12T11:56:29.268Z,59.12
2023-08-12T12:01:30.825Z,58.92
2023-08-12T12:06:34.623Z,59.28
2023-08-12T12:11:37.847Z,58.94
2023-08-12T12:16:46.995Z,59.18
2023-08-12T12:21:49.944Z,59.62
2023-08-12T12:26:51.474Z,59.42
2023-08-12T12:31:52.980Z,59.50
2023-08-12T12:36:54.479Z,59.87
2023-08-12T12:41:55.979Z,59.49
2023-08-12T12:46:57.643Z,59.47
2023-08-12T12:51:59.171Z,60.28
2023-08-12T12:57:00.864Z,60.37
2023-08-12T13:02:02.327Z,60.73
2023-08-12T13:07:03.841Z,60.68
2023-08-12T13:12:05.645Z,60.82
2023-08-12T13:17:07.095Z,62.03
2023-08-12T13:22:08.748Z,62.13
2023-08-12T13:27:10.340Z,60.91
2023-08-12T13:32:12.955Z,60.62
2023-08-12T13:37:14.638Z,60.56
2023-08-12T13:42:16.301Z,60.47
2023-08-12T13:47:17.707Z,60.45
2023-08-12T13:52:19.414Z,60.12
2023-08-12T13:57:20.794Z,60.45
2023-08-12T14:02:22.299Z,59.25
2023-08-12T14:07:23.868Z,59.11
2023-08-12T14:12:25.558Z,59.19
2023-08-12T14:17:27.167Z,58.91
2023-08-12T14:22:29.022Z,58.51
2023-08-12T14:27:30.726Z,58.72
2023-08-12T14:32:32.115Z,59.13
2023-08-12T14:37:33.669Z,58.96
2023-08-12T14:42:35.187Z,59.26
2023-08-12T14:47:36.918Z,58.29
2023-08-12T14:52:38.508Z,56.80
2023-08-12T14:57:40.017Z,55.94
2023-08-12T15:02:41.659Z,57.15
2023-08-12T15:07:43.400Z,57.37
2023-08-12T15:12:45.088Z,57.29
2023-08-12T15:17:46.813Z,57.47
2023-08-12T15:22:48.351Z,58.02
2023-08-12T15:27:49.849Z,57.14
2023-08-12T15:32:51.627Z,56.89
2023-08-12T15:37:53.381Z,57.11
2023-08-12T15:42:54.884Z,56.82
2023-08-12T15:47:56.556Z,57.90
2023-08-12T15:52:58.078Z,57.07
2023-08-12T15:57:59.653Z,57.29
2023-08-12T16:03:01.301Z,55.67
2023-08-12T16:08:04.648Z,56.50
2023-08-12T16:13:06.398Z,55.84
2023-08-12T16:18:08.015Z,55.21
2023-08-12T16:23:09.552Z,55.93
2023-08-12T16:28:11.117Z,55.22
2023-08-12T16:33:12.806Z,55.75
2023-08-12T16:38:14.575Z,55.19
2023-08-12T16:43:15.972Z,55.65
2023-08-12T16:48:17.524Z,54.84
2023-08-12T16:53:19.250Z,55.46
2023-08-12T16:58:20.646Z,54.19
2023-08-12T17:03:22.098Z,55.04
2023-08-12T17:08:23.644Z,55.57
2023-08-12T17:13:25.170Z,56.56
2023-08-12T17:18:26.714Z,56.89
2023-08-12T17:23:28.758Z,56.97
2023-08-12T17:28:30.275Z,57.21
2023-08-12T17:33:31.894Z,63.28
2023-08-12T17:38:33.639Z,60.86
2023-08-12T17:43:35.004Z,61.11
2023-08-12T17:48:36.560Z,60.12
2023-08-12T17:53:38.257Z,60.31
2023-08-12T17:58:40.154Z,59.31
2023-08-12T18:03:41.719Z,62.50
2023-08-12T18:08:43.309Z,62.30
2023-08-12T18:13:45.091Z,59.80
2023-08-12T18:18:46.468Z,61.22
2023-08-12T18:23:47.844Z,59.56
2023-08-12T18:28:49.283Z,59.26
2023-08-12T18:33:50.798Z,58.45
2023-08-12T18:38:52.584Z,57.71
2023-08-12T18:43:54.107Z,57.09
2023-08-12T18:48:55.658Z,56.50
2023-08-12T18:53:59.760Z,56.08
2023-08-12T18:59:01.643Z,56.59
2023-08-12T19:04:03.196Z,56.68
2023-08-12T19:09:04.706Z,58.17
2023-08-12T19:14:06.284Z,58.86
2023-08-12T19:19:07.853Z,59.14
2023-08-12T19:24:09.433Z,58.33
2023-08-12T19:29:10.978Z,57.98
2023-08-12T19:34:12.583Z,57.42
2023-08-12T19:39:14.164Z,57.21
2023-08-12T19:44:15.734Z,58.02
2023-08-12T19:49:17.300Z,57.12
2023-08-12T19:54:18.906Z,56.34
2023-08-12T19:59:20.450Z,57.79
2023-08-12T20:04:24.454Z,57.80
2023-08-12T20:09:26.422Z,58.21
2023-08-12T20:14:27.964Z,60.25
2023-08-12T20:19:29.480Z,59.61
2023-08-12T20:24:31.053Z,59.51
2023-08-12T20:29:32.590Z,60.88
2023-08-12T20:34:34.174Z,60.83
2023-08-12T20:39:36.463Z,60.49
2023-08-12T20:44:37.996Z,60.76
2023-08-12T20:49:39.511Z,61.91
2023-08-12T20:54:41.270Z,61.64
2023-08-12T20:59:43.090Z,63.22
2023-08-12T21:04:44.585Z,61.30
2023-08-12T21:09:46.091Z,60.46
2023-08-12T21:14:47.604Z,59.88
2023-08-12T21:19:49.120Z,60.75
2023-08-12T21:24:52.430Z,60.95
2023-08-12T21:29:54.177Z,59.65
2023-08-12T21:34:55.799Z,60.11
2023-08-12T21:39:57.517Z,60.54
2023-08-12T21:44:59.050Z,60.33
2023-08-12T21:50:00.553Z,60.07
2023-08-12T21:55:02.107Z,60.55
2023-08-12T22:00:04.144Z,60.06
2023-08-12T22:05:05.717Z,60.01
2023-08-12T22:10:07.655Z,59.89
2023-08-12T22:15:09.941Z,59.46
2023-08-12T22:20:12.686Z,59.08
2023-08-12T22:25:14.420Z,59.50
2023-08-12T22:30:15.913Z,58.36
2023-08-12T22:35:18.022Z,58.70
2023-08-12T22:40:19.527Z,58.50
2023-08-12T22:45:21.147Z,59.30
2023-08-12T22:50:22.630Z,58.96
2023-08-12T22:55:24.135Z,58.90
2023-08-12T23:00:25.695Z,58.64
2023-08-12T23:05:27.201Z,58.67
2023-08-12T23:10:28.799Z,58.43
2023-08-12T23:15:30.364Z,58.44
2023-08-12T23:20:31.983Z,58.23
2023-08-12T23:25:33.499Z,58.44
2023-08-12T23:30:35.074Z,57.82
2023-08-12T23:35:36.642Z,58.16
2023-08-12T23:40:38.144Z,58.25
2023-08-12T23:45:39.980Z,58.25
2023-08-12T23:50:41.550Z,58.17
2023-08-12T23:55:43.093Z,57.84
